Time,TemperatureF,DewpointF,PressureIn,WindDirection,WindDirectionDegrees,WindSpeedMPH,WindSpeedGustMPH,Humidity,HourlyPrecipIn,Conditions,Clouds,dailyrainin,SolarRadiationWatts/m^2,SoftwareType,DateUTC
2013-06-18 00:02:00,58.0,46.0,-100.00,SSW,206,0.0,2.0,65,0.00,,,0.00,0.000000,,2013-06-18 07:02:00,
2013-06-18 00:22:00,55.0,45.0,-100.00,SW,229,1.0,3.0,70,0.00,,,0.00,0.000000,,2013-06-18 07:22:00,
2013-06-18 00:33:00,55.0,45.0,-100.00,SW,229,1.0,3.0,70,0.00,,,0.00,0.000000,,2013-06-18 07:33:00,
2013-06-18 00:43:00,55.0,45.0,-100.00,SW,229,1.0,3.0,70,0.00,,,0.00,0.000000,,2013-06-18 07:43:00,
2013-06-18 00:53:00,55.0,45.0,-100.00,SW,229,1.0,3.0,70,0.00,,,0.00,0.000000,,2013-06-18 07:53:00,
2013-06-18 01:01:00,55.0,45.0,-100.00,SW,229,1.0,3.0,70,0.00,,,0.00,0.000000,,2013-06-18 08:01:00,
2013-06-18 01:23:00,54.0,46.0,-100.00,West,259,0.0,3.0,74,0.00,,,0.00,0.000000,,2013-06-18 08:23:00,
2013-06-18 01:33:00,54.0,46.0,-100.00,West,259,0.0,3.0,74,0.00,,,0.00,0.000000,,2013-06-18 08:33:00,
2013-06-18 01:43:00,54.0,46.0,-100.00,West,259,0.0,3.0,74,0.00,,,0.00,0.000000,,2013-06-18 08:43:00,
2013-06-18 01:52:00,54.0,46.0,-100.00,West,259,0.0,3.0,74,0.00,,,0.00,0.000000,,2013-06-18 08:52:00,
2013-06-18 02:01:00,54.0,46.0,-100.00,West,259,0.0,3.0,74,0.00,,,0.00,0.000000,,2013-06-18 09:01:00,
2013-06-18 02:34:00,53.0,45.0,-100.00,SW,234,1.0,4.0,74,0.00,,,0.00,0.000000,,2013-06-18 09:34:00,
2013-06-18 02:43:00,53.0,45.0,-100.00,SW,234,1.0,4.0,74,0.00,,,0.00,0.000000,,2013-06-18 09:43:00,
2013-06-18 02:53:00,53.0,45.0,-100.00,SW,234,1.0,4.0,74,0.00,,,0.00,0.000000,,2013-06-18 09:53:00,
2013-06-18 03:01:00,53.0,45.0,-100.00,SW,234,1.0,4.0,74,0.00,,,0.00,0.000000,,2013-06-18 10:01:00,
2013-06-18 03:22:00,50.0,44.0,-100.00,SW,218,1.0,3.0,81,0.00,,,0.00,0.000000,,2013-06-18 10:22:00,
2013-06-18 03:43:00,50.0,44.0,-100.00,SW,218,1.0,3.0,81,0.00,,,0.00,0.000000,,2013-06-18 10:43:00,
2013-06-18 03:53:00,50.0,44.0,-100.00,SW,218,1.0,3.0,81,0.00,,,0.00,0.000000,,2013-06-18 10:53:00,
2013-06-18 04:02:00,50.0,44.0,-100.00,SW,218,1.0,3.0,81,0.00,,,0.00,0.000000,,2013-06-18 11:02:00,
2013-06-18 04:22:00,49.0,44.0,-100.00,SSW,210,0.0,3.0,83,0.00,,,0.00,0.000000,,2013-06-18 11:22:00,
2013-06-18 04:32:00,49.0,44.0,-100.00,SSW,210,0.0,3.0,83,0.00,,,0.00,0.000000,,2013-06-18 11:32:00,
2013-06-18 04:43:00,49.0,44.0,-100.00,SSW,210,0.0,3.0,83,0.00,,,0.00,0.000000,,2013-06-18 11:43:00,
2013-06-18 04:52:00,49.0,44.0,-100.00,SSW,210,0.0,3.0,83,0.00,,,0.00,0.000000,,2013-06-18 11:52:00,
2013-06-18 05:01:00,49.0,44.0,-100.00,SSW,210,0.0,3.0,83,0.00,,,0.00,0.000000,,2013-06-18 12:01:00,
2013-06-18 05:33:00,48.0,43.0,-100.00,SW,220,0.0,2.0,83,0.00,,,0.00,0.000000,,2013-06-18 12:33:00,
2013-06-18 05:52:00,48.0,43.0,-100.00,SW,220,0.0,2.0,83,0.00,,,0.00,0.000000,,2013-06-18 12:52:00,
2013-06-18 06:01:00,48.0,43.0,-100.00,SW,220,0.0,2.0,83,0.00,,,0.00,0.000000,,2013-06-18 13:01:00,
2013-06-18 06:22:00,46.0,42.0,-100.00,WNW,300,0.0,4.0,87,0.00,,,-99.99,2.000000,,2013-06-18 13:22:00,
2013-06-18 06:33:00,46.0,42.0,-100.00,WNW,300,0.0,4.0,87,0.00,,,-99.99,2.000000,,2013-06-18 13:33:00,
2013-06-18 06:43:00,46.0,42.0,-100.00,WNW,300,0.0,4.0,87,0.00,,,-99.99,2.000000,,2013-06-18 13:43:00,
2013-06-18 06:53:00,46.0,42.0,-100.00,WNW,300,0.0,4.0,87,0.00,,,-99.99,2.000000,,2013-06-18 13:53:00,
2013-06-18 07:02:00,46.0,42.0,-100.00,WNW,300,0.0,4.0,87,0.00,,,-99.99,2.000000,,2013-06-18 14:02:00,
2013-06-18 07:22:00,46.0,42.0,-100.00,South,175,0.0,2.0,87,0.00,,,0.00,16.000000,,2013-06-18 14:22:00,
2013-06-18 08:22:00,59.0,47.0,-100.00,East,86,2.0,4.0,64,-99.99,,,0.00,269.000000,,2013-06-18 15:22:00,
2013-06-18 08:33:00,59.0,47.0,-100.00,East,86,2.0,4.0,64,-99.99,,,0.00,269.000000,,2013-06-18 15:33:00,
2013-06-18 08:43:00,59.0,47.0,-100.00,East,86,2.0,4.0,64,-99.99,,,0.00,269.000000,,2013-06-18 15:43:00,
2013-06-18 08:53:00,59.0,47.0,-100.00,East,86,2.0,4.0,64,-99.99,,,0.00,269.000000,,2013-06-18 15:53:00,
2013-06-18 09:01:00,59.0,47.0,-100.00,East,86,2.0,4.0,64,-99.99,,,0.00,269.000000,,2013-06-18 16:01:00,
2013-06-18 09:33:00,66.0,48.0,-100.00,East,85,5.0,8.0,53,0.00,,,0.00,471.000000,,2013-06-18 16:33:00,
2013-06-18 09:43:00,66.0,48.0,-100.00,East,85,5.0,8.0,53,0.00,,,0.00,471.000000,,2013-06-18 16:43:00,
2013-06-18 09:53:00,66.0,48.0,-100.00,East,85,5.0,8.0,53,0.00,,,0.00,471.000000,,2013-06-18 16:53:00,
2013-06-18 10:01:00,66.0,48.0,-100.00,East,85,5.0,8.0,53,0.00,,,0.00,471.000000,,2013-06-18 17:01:00,
2013-06-18 10:22:00,71.0,45.0,-100.00,ENE,76,5.0,12.0,39,0.00,,,0.00,660.000000,,2013-06-18 17:22:00,
2013-06-18 10:34:00,71.0,45.0,-100.00,ENE,76,5.0,12.0,39,0.00,,,0.00,660.000000,,2013-06-18 17:34:00,
2013-06-18 10:43:00,71.0,45.0,-100.00,ENE,76,5.0,12.0,39,0.00,,,0.00,660.000000,,2013-06-18 17:43:00,
2013-06-18 10:53:00,71.0,45.0,-100.00,ENE,76,5.0,12.0,39,0.00,,,0.00,660.000000,,2013-06-18 17:53:00,
2013-06-18 11:01:00,71.0,45.0,-100.00,ENE,76,5.0,12.0,39,0.00,,,0.00,660.000000,,2013-06-18 18:01:00,
2013-06-18 11:22:00,74.0,42.0,-100.00,ENE,78,7.0,16.0,32,0.00,,,0.00,819.000000,,2013-06-18 18:22:00,
2013-06-18 11:33:00,74.0,42.0,-100.00,ENE,78,7.0,16.0,32,0.00,,,0.00,819.000000,,2013-06-18 18:33:00,
2013-06-18 11:42:00,74.0,42.0,-100.00,ENE,78,7.0,16.0,32,0.00,,,0.00,819.000000,,2013-06-18 18:42:00,
2013-06-18 11:53:00,74.0,42.0,-100.00,ENE,78,7.0,16.0,32,0.00,,,0.00,819.000000,,2013-06-18 18:53:00,
2013-06-18 12:01:00,74.0,42.0,-100.00,ENE,78,7.0,16.0,32,0.00,,,0.00,819.000000,,2013-06-18 19:01:00,
2013-06-18 12:33:00,76.0,42.0,-100.00,ENE,70,7.0,17.0,30,0.00,,,0.00,926.000000,,2013-06-18 19:33:00,
2013-06-18 12:43:00,76.0,42.0,-100.00,ENE,70,7.0,17.0,30,0.00,,,0.00,926.000000,,2013-06-18 19:43:00,
2013-06-18 12:52:00,76.0,42.0,-100.00,ENE,70,7.0,17.0,30,0.00,,,0.00,926.000000,,2013-06-18 19:52:00,
2013-06-18 13:01:00,76.0,42.0,-100.00,ENE,70,7.0,17.0,30,0.00,,,0.00,926.000000,,2013-06-18 20:01:00,
2013-06-18 13:23:00,78.0,42.0,-100.00,NE,47,7.0,16.0,28,0.00,,,0.00,981.000000,,2013-06-18 20:23:00,
2013-06-18 13:33:00,78.0,42.0,-100.00,NE,47,7.0,16.0,28,0.00,,,0.00,981.000000,,2013-06-18 20:33:00,
2013-06-18 13:43:00,78.0,42.0,-100.00,NE,47,7.0,16.0,28,0.00,,,0.00,981.000000,,2013-06-18 20:43:00,
2013-06-18 13:52:00,78.0,42.0,-100.00,NE,47,7.0,16.0,28,0.00,,,0.00,981.000000,,2013-06-18 20:52:00,
2013-06-18 14:01:00,78.0,42.0,-100.00,NE,47,7.0,16.0,28,0.00,,,0.00,981.000000,,2013-06-18 21:01:00,
2013-06-18 14:33:00,77.0,43.0,-100.00,ENE,66,9.0,20.0,30,0.00,,,0.00,983.000000,,2013-06-18 21:33:00,
2013-06-18 14:43:00,77.0,43.0,-100.00,ENE,66,9.0,20.0,30,0.00,,,0.00,983.000000,,2013-06-18 21:43:00,
2013-06-18 14:52:00,77.0,43.0,-100.00,ENE,66,9.0,20.0,30,0.00,,,0.00,983.000000,,2013-06-18 21:52:00,
2013-06-18 15:01:00,77.0,43.0,-100.00,ENE,66,9.0,20.0,30,0.00,,,0.00,983.000000,,2013-06-18 22:01:00,
2013-06-18 15:22:00,77.0,44.0,-100.00,ENE,62,9.0,22.0,31,0.00,,,0.00,938.000000,,2013-06-18 22:22:00,
2013-06-18 15:34:00,77.0,44.0,-100.00,ENE,62,9.0,22.0,31,0.00,,,0.00,938.000000,,2013-06-18 22:34:00,
2013-06-18 15:43:00,77.0,44.0,-100.00,ENE,62,9.0,22.0,31,0.00,,,0.00,938.000000,,2013-06-18 22:43:00,
2013-06-18 15:53:00,77.0,44.0,-100.00,ENE,62,9.0,22.0,31,0.00,,,0.00,938.000000,,2013-06-18 22:53:00,
2013-06-18 16:01:00,77.0,44.0,-100.00,ENE,62,9.0,22.0,31,0.00,,,0.00,938.000000,,2013-06-18 23:01:00,
2013-06-18 16:23:00,76.0,42.0,-100.00,East,87,8.0,17.0,30,0.00,,,0.00,842.000000,,2013-06-18 23:23:00,
2013-06-18 16:38:00,76.0,42.0,-100.00,East,87,8.0,17.0,30,0.00,,,0.00,842.000000,,2013-06-18 23:38:00,
2013-06-18 16:48:00,76.0,42.0,-100.00,East,87,8.0,17.0,30,0.00,,,0.00,842.000000,,2013-06-18 23:48:00,
2013-06-18 16:53:00,76.0,42.0,-100.00,East,87,8.0,17.0,30,0.00,,,0.00,842.000000,,2013-06-18 23:53:00,
2013-06-18 17:01:00,76.0,42.0,-100.00,East,87,8.0,17.0,30,0.00,,,0.00,842.000000,,2013-06-19 00:01:00,
2013-06-18 17:33:00,75.0,44.0,-100.00,ENE,57,6.0,18.0,33,0.00,,,0.00,693.000000,,2013-06-19 00:33:00,
2013-06-18 17:43:00,75.0,44.0,-100.00,ENE,57,6.0,18.0,33,0.00,,,0.00,693.000000,,2013-06-19 00:43:00,
2013-06-18 17:53:00,75.0,44.0,-100.00,ENE,57,6.0,18.0,33,0.00,,,0.00,693.000000,,2013-06-19 00:53:00,
2013-06-18 18:01:00,75.0,44.0,-100.00,ENE,57,6.0,18.0,33,0.00,,,0.00,693.000000,,2013-06-19 01:01:00,
2013-06-18 18:32:00,72.0,43.0,-100.00,East,98,6.0,17.0,35,0.00,,,0.00,514.000000,,2013-06-19 01:32:00,
2013-06-18 18:43:00,72.0,43.0,-100.00,East,98,6.0,17.0,35,0.00,,,0.00,514.000000,,2013-06-19 01:43:00,
2013-06-18 18:53:00,72.0,43.0,-100.00,East,98,6.0,17.0,35,0.00,,,0.00,514.000000,,2013-06-19 01:53:00,
2013-06-18 19:01:00,72.0,43.0,-100.00,East,98,6.0,17.0,35,0.00,,,0.00,514.000000,,2013-06-19 02:01:00,
2013-06-18 19:32:00,69.0,42.0,-100.00,NE,50,6.0,14.0,38,0.00,,,0.00,316.000000,,2013-06-19 02:32:00,
2013-06-18 19:42:00,69.0,42.0,-100.00,NE,50,6.0,14.0,38,0.00,,,0.00,316.000000,,2013-06-19 02:42:00,
2013-06-18 19:52:00,69.0,42.0,-100.00,NE,50,6.0,14.0,38,0.00,,,0.00,316.000000,,2013-06-19 02:52:00,
2013-06-18 20:01:00,69.0,42.0,-100.00,NE,50,6.0,14.0,38,0.00,,,0.00,316.000000,,2013-06-19 03:01:00,
2013-06-18 20:22:00,62.0,43.0,-100.00,NE,52,4.0,14.0,49,0.00,,,0.00,73.000000,,2013-06-19 03:22:00,
2013-06-18 20:33:00,62.0,43.0,-100.00,NE,52,4.0,14.0,49,0.00,,,0.00,73.000000,,2013-06-19 03:33:00,
2013-06-18 20:43:00,62.0,43.0,-100.00,NE,52,4.0,14.0,49,0.00,,,0.00,73.000000,,2013-06-19 03:43:00,
2013-06-18 20:52:00,62.0,43.0,-100.00,NE,52,4.0,14.0,49,0.00,,,0.00,73.000000,,2013-06-19 03:52:00,
2013-06-18 21:01:00,62.0,43.0,-100.00,NE,52,4.0,14.0,49,0.00,,,0.00,73.000000,,2013-06-19 04:01:00,
2013-06-18 21:23:00,58.0,41.0,-100.00,ENE,75,4.0,9.0,53,0.00,,,0.00,4.000000,,2013-06-19 04:23:00,
2013-06-18 21:33:00,58.0,41.0,-100.00,ENE,75,4.0,9.0,53,0.00,,,0.00,4.000000,,2013-06-19 04:33:00,
2013-06-18 21:43:00,58.0,41.0,-100.00,ENE,75,4.0,9.0,53,0.00,,,0.00,4.000000,,2013-06-19 04:43:00,
2013-06-18 21:53:00,58.0,41.0,-100.00,ENE,75,4.0,9.0,53,0.00,,,0.00,4.000000,,2013-06-19 04:53:00,
2013-06-18 22:01:00,58.0,41.0,-100.00,ENE,75,4.0,9.0,53,0.00,,,0.00,4.000000,,2013-06-19 05:01:00,
2013-06-18 22:23:00,54.0,40.0,-100.00,ESE,109,0.0,4.0,60,0.00,,,0.00,0.000000,,2013-06-19 05:23:00,
2013-06-18 22:32:00,54.0,40.0,-100.00,ESE,109,0.0,4.0,60,0.00,,,0.00,0.000000,,2013-06-19 05:32:00,
2013-06-18 22:43:00,54.0,40.0,-100.00,ESE,109,0.0,4.0,60,0.00,,,0.00,0.000000,,2013-06-19 05:43:00,
2013-06-18 22:52:00,54.0,40.0,-100.00,ESE,109,0.0,4.0,60,0.00,,,0.00,0.000000,,2013-06-19 05:52:00,
2013-06-18 23:01:00,54.0,40.0,-100.00,ESE,109,0.0,4.0,60,0.00,,,0.00,0.000000,,2013-06-19 06:01:00,
2013-06-18 23:34:00,51.0,40.0,-100.00,SE,132,0.0,2.0,66,0.00,,,0.00,0.000000,,2013-06-19 06:34:00,
2013-06-18 23:43:00,51.0,40.0,-100.00,SE,132,0.0,2.0,66,0.00,,,0.00,0.000000,,2013-06-19 06:43:00,
2013-06-18 23:52:00,51.0,40.0,-100.00,SE,132,0.0,2.0,66,0.00,,,0.00,0.000000,,2013-06-19 06:52:00,